AirNav   Everest Fuels
 
 513 users online  

FD95 White Field Airport
Branford, Florida, USA

GOING TO BRANFORD?


FAA INFORMATION EFFECTIVE 18 JUNE 2020

Location

FAA Identifier: FD95
Lat/Long: 29-58-29.8000N 082-55-30.1000W
29-58.496667N 082-55.501667W
29.9749444,-82.9250278
(estimated)
Elevation: 43 ft. / 13 m (estimated)
From city: 1 mile N of BRANFORD, FL
Time zone: UTC -4 (UTC -5 during Standard Time)
Zip code: 32008

Airport Operations

Airport use: Private use. Permission required prior to landing
Activation date: 07/2017
Control tower: no
ARTCC: JACKSONVILLE CENTER
FSS: GAINESVILLE FLIGHT SERVICE STATION
Attendance: 
Wind indicator: no
Segmented circle: no

Nearby radio navigation aids

VOR radial/distance  VOR name  Freq  Var
CTYr018/23.5CROSS CITY VORTAC112.0002W
TAYr214/37.2TAYLOR VORTAC112.9003W
GNVr301/37.9GATORS VORTAC116.2004W

 
NDB name  Hdg/Dist  Freq  Var  ID
LAKE CITY238/22.020403WLCQ .-.. -.-. --.-

Airport Services

Runway Information

Runway 18/36

Dimensions: 3052 x 75 ft. / 930 x 23 m
Surface: turf, in good condition
Runway edge lights: non-standard
RUNWAY 18  RUNWAY 36
Traffic pattern: leftleft

Airport Ownership and Management from official FAA records

Ownership: Privately-owned
Owner: JOHN E WHITE
8325 262ND TERRACE
BRANFORD, FL 32008
Phone 386-935-3954
Manager: JOHN E WHITE
8325 262ND TERRACE
BRANFORD, FL 32008
Phone 386-935-3954

Airport Operational Statistics

Aircraft based on the field: 2
Single engine airplanes: 1
Helicopters: 1
    

Additional Remarks

FOR CD CTC JACKSONVILLE ARTCC AT 904-845-1592.

Instrument Procedures

There are no published instrument procedures at FD95.

Some nearby airports with instrument procedures:

24J - Suwannee County Airport (20 nm N)
KLCQ - Lake City Gateway Airport (22 nm NE)
KCTY - Cross City Airport (22 nm SW)
KFPY - Perry-Foley Airport (35 nm W)
KGNV - Gainesville Regional Airport (38 nm SE)
 
Loc | Ops | Rwys | IFR | FBO | Links
Com | Nav | Svcs | Stats | Notes
Aerial photo
No photo
 
Airport distance calculator
Flying to White Field Airport? Find the distance to fly.

From to FD95

Sunrise and sunset
Times for 11-Jul-2020
 Local
(UTC-4)
 Zulu
(UTC)
Morning civil twilight06:1310:13
Sunrise06:4010:40
Sunset20:3400:34
Evening civil twilight21:0101:01

Current date and time
Zulu (UTC)  11-Jul-2020 11:26:34
Local (UTC-4)  11-Jul-2020 07:26:34
 
METAR
K24J 
20nm N 
111115Z AUTO 00000KT 9SM CLR 23/23 A2990 RMK A01
KLCQ 
22nm NE 
111115Z AUTO 26004KT 10SM CLR 22/22 A2991 RMK AO2
KCTY 
27nm S 
111115Z AUTO 27003KT 10SM CLR 24/23 A2991 RMK AO2 T02440233
KFPY 
35nm W 
111115Z AUTO 00000KT 10SM CLR 24/24 A2992 RMK AO2 T02440239
KGNV 
37nm SE 
111053Z 29005KT 6SM BR CLR 24/24 A2990 RMK AO2 SLP123 T02390239
TAF
KGNV 
37nm SE 
110520Z 1106/1206 VRB06KT 5SM SHRA VCTS BKN030CB OVC060 TEMPO 1106/1108 VRB15G25KT 1SM +TSRA BKN015CB OVC030 FM110900 28004KT 5SM BR VCSH BKN040 BKN080 BKN200 FM111300 30008KT P6SM SCT030 BKN200 FM111700 28008KT P6SM VCTS BKN040CB BKN080 PROB30 1118/1124 VRB15G25KT 3SM TSRA BKN025CB FM120100 25004KT P6SM SCT040 SCT080 BKN200
NOTAMs
Click for the latest NOTAMs
NOTAMs are issued by the DoD/FAA and will open in a separate window not controlled by AirNav.

 

 
 

Would you like to see your business listed on this page?

 If your business provides an interesting product or service to pilots, flight crews, aircraft, or users of the White Field Airport, you should consider listing it here.  To start the listing process, click on the button below
 
Add a business
 

Other Pages about White Field Airport

Update a link
 
Copyright © AirNav, LLC. All rights reserved. Privacy Policy  Contact